sensor_id;sensor_type;location;lat;lon;timestamp;P1;durP1;ratioP1;P2;durP2;ratioP2
18114;SDS011;9184;54.390;18.620;2022-11-15T00:00:15;81.60;;;52.47;;
18114;SDS011;9184;54.390;18.620;2022-11-15T00:00:46;81.18;;;53.42;;
18114;SDS011;9184;54.390;18.620;2022-11-15T00:01:17;82.78;;;54.60;;
18114;SDS011;9184;54.390;18.620;2022-11-15T00:01:48;83.40;;;52.28;;
18114;SDS011;9184;54.390;18.620;2022-11-15T00:02:19;80.55;;;53.95;;
18114;SDS011;9184;54.390;18.620;2022-11-15T00:02:49;80.47;;;53.63;;
18114;SDS011;9184;54.390;18.620;2022-11-15T00:03:21;78.80;;;52.45;;
18114;SDS011;9184;54.390;18.620;2022-11-15T00:03:53;75.43;;;50.43;;
18114;SDS011;9184;54.390;18.620;2022-11-15T00:04:23;78.80;;;52.60;;
18114;SDS011;9184;54.390;18.620;2022-11-15T00:04:54;84.57;;;52.58;;
18114;SDS011;9184;54.390;18.620;2022-11-15T00:05:25;81.80;;;53.58;;
18114;SDS011;9184;54.390;18.620;2022-11-15T00:06:00;78.30;;;52.28;;
18114;SDS011;9184;54.390;18.620;2022-11-15T00:06:31;78.60;;;50.88;;
18114;SDS011;9184;54.390;18.620;2022-11-15T00:07:02;77.93;;;50.53;;
18114;SDS011;9184;54.390;18.620;2022-11-15T00:07:33;86.78;;;52.45;;
18114;SDS011;9184;54.390;18.620;2022-11-15T00:08:03;75.78;;;52.47;;
18114;SDS011;9184;54.390;18.620;2022-11-15T00:08:34;81.07;;;52.47;;
18114;SDS011;9184;54.390;18.620;2022-11-15T00:09:05;80.00;;;53.30;;
18114;SDS011;9184;54.390;18.620;2022-11-15T00:09:36;83.10;;;52.78;;
18114;SDS011;9184;54.390;18.620;2022-11-15T00:10:07;82.00;;;50.88;;
18114;SDS011;9184;54.390;18.620;2022-11-15T00:10:38;81.88;;;51.22;;
18114;SDS011;9184;54.390;18.620;2022-11-15T00:11:10;84.38;;;51.45;;
18114;SDS011;9184;54.390;18.620;2022-11-15T00:11:42;82.72;;;51.72;;
18114;SDS011;9184;54.390;18.620;2022-11-15T00:12:12;80.07;;;52.78;;
18114;SDS011;9184;54.390;18.620;2022-11-15T00:12:44;76.65;;;50.97;;
18114;SDS011;9184;54.390;18.620;2022-11-15T00:13:14;81.72;;;51.92;;
18114;SDS011;9184;54.390;18.620;2022-11-15T00:13:44;81.43;;;53.37;;
18114;SDS011;9184;54.390;18.620;2022-11-15T00:14:16;85.40;;;52.58;;
18114;SDS011;9184;54.390;18.620;2022-11-15T00:14:46;83.45;;;51.58;;
18114;SDS011;9184;54.390;18.620;2022-11-15T00:15:17;84.80;;;52.67;;
18114;SDS011;9184;54.390;18.620;2022-11-15T00:15:48;84.82;;;52.28;;
18114;SDS011;9184;54.390;18.620;2022-11-15T00:16:18;86.43;;;53.63;;
18114;SDS011;9184;54.390;18.620;2022-11-15T00:16:50;91.68;;;54.35;;
18114;SDS011;9184;54.390;18.620;2022-11-15T00:17:20;87.45;;;51.55;;
18114;SDS011;9184;54.390;18.620;2022-11-15T00:17:51;84.18;;;53.03;;
18114;SDS011;9184;54.390;18.620;2022-11-15T00:18:21;80.88;;;52.08;;
18114;SDS011;9184;54.390;18.620;2022-11-15T00:18:52;84.65;;;51.88;;
18114;SDS011;9184;54.390;18.620;2022-11-15T00:19:23;84.40;;;50.67;;
18114;SDS011;9184;54.390;18.620;2022-11-15T00:19:53;92.40;;;53.90;;
18114;SDS011;9184;54.390;18.620;2022-11-15T00:20:25;84.80;;;52.28;;
18114;SDS011;9184;54.390;18.620;2022-11-15T00:20:55;89.68;;;56.00;;
18114;SDS011;9184;54.390;18.620;2022-11-15T00:21:27;80.43;;;51.22;;
18114;SDS011;9184;54.390;18.620;2022-11-15T00:21:58;85.65;;;52.15;;
18114;SDS011;9184;54.390;18.620;2022-11-15T00:22:31;91.47;;;53.67;;
18114;SDS011;9184;54.390;18.620;2022-11-15T00:23:02;89.20;;;54.08;;
18114;SDS011;9184;54.390;18.620;2022-11-15T00:23:34;85.30;;;51.88;;
18114;SDS011;9184;54.390;18.620;2022-11-15T00:24:04;87.68;;;52.55;;
18114;SDS011;9184;54.390;18.620;2022-11-15T00:24:35;84.00;;;52.53;;
18114;SDS011;9184;54.390;18.620;2022-11-15T00:25:06;94.20;;;52.95;;
18114;SDS011;9184;54.390;18.620;2022-11-15T00:25:37;78.75;;;51.63;;
18114;SDS011;9184;54.390;18.620;2022-11-15T00:26:10;79.22;;;51.78;;
18114;SDS011;9184;54.390;18.620;2022-11-15T00:26:42;89.65;;;53.78;;
18114;SDS011;9184;54.390;18.620;2022-11-15T00:27:12;91.70;;;53.03;;
18114;SDS011;9184;54.390;18.620;2022-11-15T00:27:42;84.47;;;51.30;;
18114;SDS011;9184;54.390;18.620;2022-11-15T00:28:15;94.43;;;54.92;;
18114;SDS011;9184;54.390;18.620;2022-11-15T00:28:45;87.93;;;52.80;;
18114;SDS011;9184;54.390;18.620;2022-11-15T00:29:17;86.75;;;50.13;;
18114;SDS011;9184;54.390;18.620;2022-11-15T00:29:47;85.15;;;54.22;;
18114;SDS011;9184;54.390;18.620;2022-11-15T00:30:17;89.80;;;52.47;;
18114;SDS011;9184;54.390;18.620;2022-11-15T00:30:49;88.93;;;53.05;;
18114;SDS011;9184;54.390;18.620;2022-11-15T00:31:19;92.65;;;55.10;;
18114;SDS011;9184;54.390;18.620;2022-11-15T00:31:50;87.22;;;54.00;;
18114;SDS011;9184;54.390;18.620;2022-11-15T00:32:21;90.22;;;52.20;;
18114;SDS011;9184;54.390;18.620;2022-11-15T00:32:52;87.85;;;53.17;;
18114;SDS011;9184;54.390;18.620;2022-11-15T00:33:22;94.03;;;54.28;;
18114;SDS011;9184;54.390;18.620;2022-11-15T00:33:54;90.45;;;52.28;;
18114;SDS011;9184;54.390;18.620;2022-11-15T00:34:24;93.25;;;52.72;;
18114;SDS011;9184;54.390;18.620;2022-11-15T00:34:54;93.13;;;53.88;;
18114;SDS011;9184;54.390;18.620;2022-11-15T00:35:26;98.47;;;56.13;;
18114;SDS011;9184;54.390;18.620;2022-11-15T00:36:00;92.22;;;54.03;;
18114;SDS011;9184;54.390;18.620;2022-11-15T00:36:32;95.30;;;54.45;;
18114;SDS011;9184;54.390;18.620;2022-11-15T00:37:03;95.38;;;54.65;;
18114;SDS011;9184;54.390;18.620;2022-11-15T00:37:34;84.43;;;50.72;;
18114;SDS011;9184;54.390;18.620;2022-11-15T00:38:04;91.43;;;54.75;;
18114;SDS011;9184;54.390;18.620;2022-11-15T00:38:36;95.60;;;55.58;;
18114;SDS011;9184;54.390;18.620;2022-11-15T00:39:07;100.28;;;55.58;;
18114;SDS011;9184;54.390;18.620;2022-11-15T00:39:37;90.85;;;54.95;;
18114;SDS011;9184;54.390;18.620;2022-11-15T00:40:09;92.30;;;52.28;;
18114;SDS011;9184;54.390;18.620;2022-11-15T00:40:40;87.30;;;52.67;;
18114;SDS011;9184;54.390;18.620;2022-11-15T00:41:12;94.20;;;54.33;;
18114;SDS011;9184;54.390;18.620;2022-11-15T00:41:43;96.95;;;55.25;;
18114;SDS011;9184;54.390;18.620;2022-11-15T00:42:14;91.55;;;54.25;;
18114;SDS011;9184;54.390;18.620;2022-11-15T00:42:45;93.03;;;54.33;;
18114;SDS011;9184;54.390;18.620;2022-11-15T00:43:16;93.65;;;54.85;;
18114;SDS011;9184;54.390;18.620;2022-11-15T00:43:47;93.45;;;54.83;;
18114;SDS011;9184;54.390;18.620;2022-11-15T00:44:17;89.03;;;54.55;;
18114;SDS011;9184;54.390;18.620;2022-11-15T00:44:48;92.00;;;53.97;;
18114;SDS011;9184;54.390;18.620;2022-11-15T00:45:19;93.32;;;55.53;;
18114;SDS011;9184;54.390;18.620;2022-11-15T00:45:49;99.82;;;54.92;;
18114;SDS011;9184;54.390;18.620;2022-11-15T00:46:20;88.95;;;52.97;;
18114;SDS011;9184;54.390;18.620;2022-11-15T00:46:51;89.07;;;54.58;;
18114;SDS011;9184;54.390;18.620;2022-11-15T00:47:21;97.68;;;56.63;;
18114;SDS011;9184;54.390;18.620;2022-11-15T00:47:52;93.60;;;54.78;;
18114;SDS011;9184;54.390;18.620;2022-11-15T00:48:23;96.95;;;55.65;;
18114;SDS011;9184;54.390;18.620;2022-11-15T00:48:54;101.22;;;55.25;;
18114;SDS011;9184;54.390;18.620;2022-11-15T00:49:25;91.43;;;54.58;;
18114;SDS011;9184;54.390;18.620;2022-11-15T00:49:55;99.70;;;56.95;;
18114;SDS011;9184;54.390;18.620;2022-11-15T00:50:26;102.20;;;57.30;;
18114;SDS011;9184;54.390;18.620;2022-11-15T00:50:57;97.90;;;55.65;;
18114;SDS011;9184;54.390;18.620;2022-11-15T00:51:27;106.40;;;57.17;;
18114;SDS011;9184;54.390;18.620;2022-11-15T00:51:59;100.47;;;55.70;;
18114;SDS011;9184;54.390;18.620;2022-11-15T00:52:29;99.20;;;56.22;;
18114;SDS011;9184;54.390;18.620;2022-11-15T00:52:59;96.63;;;57.20;;
18114;SDS011;9184;54.390;18.620;2022-11-15T00:53:30;105.20;;;57.67;;
18114;SDS011;9184;54.390;18.620;2022-11-15T00:54:01;99.13;;;57.38;;
18114;SDS011;9184;54.390;18.620;2022-11-15T00:54:31;102.15;;;57.53;;
18114;SDS011;9184;54.390;18.620;2022-11-15T00:55:02;103.50;;;54.25;;
18114;SDS011;9184;54.390;18.620;2022-11-15T00:55:32;98.40;;;56.13;;
18114;SDS011;9184;54.390;18.620;2022-11-15T00:56:04;94.80;;;55.50;;
18114;SDS011;9184;54.390;18.620;2022-11-15T00:56:36;93.45;;;55.78;;
18114;SDS011;9184;54.390;18.620;2022-11-15T00:57:06;91.38;;;53.60;;
18114;SDS011;9184;54.390;18.620;2022-11-15T00:57:37;102.45;;;56.67;;
18114;SDS011;9184;54.390;18.620;2022-11-15T00:58:08;110.78;;;57.15;;
18114;SDS011;9184;54.390;18.620;2022-11-15T00:58:38;95.43;;;53.90;;
18114;SDS011;9184;54.390;18.620;2022-11-15T00:59:09;99.83;;;56.23;;
18114;SDS011;9184;54.390;18.620;2022-11-15T00:59:40;97.03;;;55.72;;
18114;SDS011;9184;54.390;18.620;2022-11-15T01:00:11;101.95;;;56.50;;
18114;SDS011;9184;54.390;18.620;2022-11-15T01:00:41;105.65;;;57.75;;
18114;SDS011;9184;54.390;18.620;2022-11-15T01:01:13;103.57;;;57.55;;
18114;SDS011;9184;54.390;18.620;2022-11-15T01:01:44;108.97;;;57.53;;
18114;SDS011;9184;54.390;18.620;2022-11-15T01:02:14;103.70;;;55.70;;
18114;SDS011;9184;54.390;18.620;2022-11-15T01:02:45;103.80;;;57.70;;
18114;SDS011;9184;54.390;18.620;2022-11-15T01:03:16;100.22;;;57.00;;
18114;SDS011;9184;54.390;18.620;2022-11-15T01:03:46;99.90;;;56.03;;
18114;SDS011;9184;54.390;18.620;2022-11-15T01:04:17;98.10;;;53.30;;
18114;SDS011;9184;54.390;18.620;2022-11-15T01:04:48;98.20;;;53.63;;
18114;SDS011;9184;54.390;18.620;2022-11-15T01:05:18;99.07;;;55.83;;
18114;SDS011;9184;54.390;18.620;2022-11-15T01:05:50;98.30;;;53.92;;
18114;SDS011;9184;54.390;18.620;2022-11-15T01:06:20;101.43;;;55.95;;
18114;SDS011;9184;54.390;18.620;2022-11-15T01:06:51;100.87;;;54.23;;
18114;SDS011;9184;54.390;18.620;2022-11-15T01:07:22;98.83;;;56.10;;
18114;SDS011;9184;54.390;18.620;2022-11-15T01:07:52;112.13;;;58.25;;
18114;SDS011;9184;54.390;18.620;2022-11-15T01:08:23;101.90;;;55.47;;
18114;SDS011;9184;54.390;18.620;2022-11-15T01:08:55;102.10;;;55.03;;
18114;SDS011;9184;54.390;18.620;2022-11-15T01:09:25;101.07;;;55.03;;
18114;SDS011;9184;54.390;18.620;2022-11-15T01:09:55;104.43;;;56.93;;
18114;SDS011;9184;54.390;18.620;2022-11-15T01:10:27;103.63;;;56.13;;
18114;SDS011;9184;54.390;18.620;2022-11-15T01:10:59;106.00;;;58.53;;
18114;SDS011;9184;54.390;18.620;2022-11-15T01:11:30;100.03;;;57.28;;
18114;SDS011;9184;54.390;18.620;2022-11-15T01:12:03;101.38;;;56.90;;
18114;SDS011;9184;54.390;18.620;2022-11-15T01:12:33;101.27;;;56.27;;
18114;SDS011;9184;54.390;18.620;2022-11-15T01:13:04;100.07;;;55.73;;
18114;SDS011;9184;54.390;18.620;2022-11-15T01:13:36;105.63;;;57.88;;
18114;SDS011;9184;54.390;18.620;2022-11-15T01:14:06;102.05;;;54.90;;
18114;SDS011;9184;54.390;18.620;2022-11-15T01:14:37;103.93;;;55.43;;
18114;SDS011;9184;54.390;18.620;2022-11-15T01:15:08;102.57;;;54.97;;
18114;SDS011;9184;54.390;18.620;2022-11-15T01:15:39;106.70;;;56.20;;
18114;SDS011;9184;54.390;18.620;2022-11-15T01:16:11;104.97;;;56.05;;
18114;SDS011;9184;54.390;18.620;2022-11-15T01:16:43;101.20;;;56.28;;
18114;SDS011;9184;54.390;18.620;2022-11-15T01:17:14;98.47;;;54.53;;
18114;SDS011;9184;54.390;18.620;2022-11-15T01:17:44;109.60;;;57.00;;
18114;SDS011;9184;54.390;18.620;2022-11-15T01:18:15;101.90;;;54.33;;
18114;SDS011;9184;54.390;18.620;2022-11-15T01:18:46;101.78;;;56.65;;
18114;SDS011;9184;54.390;18.620;2022-11-15T01:19:17;97.57;;;52.63;;
18114;SDS011;9184;54.390;18.620;2022-11-15T01:19:47;99.20;;;54.23;;
18114;SDS011;9184;54.390;18.620;2022-11-15T01:20:19;104.47;;;57.50;;
18114;SDS011;9184;54.390;18.620;2022-11-15T01:20:49;107.30;;;59.93;;
18114;SDS011;9184;54.390;18.620;2022-11-15T01:21:20;100.63;;;55.38;;
18114;SDS011;9184;54.390;18.620;2022-11-15T01:21:51;107.50;;;56.83;;
18114;SDS011;9184;54.390;18.620;2022-11-15T01:22:21;104.75;;;57.50;;
18114;SDS011;9184;54.390;18.620;2022-11-15T01:22:52;108.28;;;59.17;;
18114;SDS011;9184;54.390;18.620;2022-11-15T01:23:22;109.65;;;56.53;;
18114;SDS011;9184;54.390;18.620;2022-11-15T01:23:54;101.75;;;54.15;;
18114;SDS011;9184;54.390;18.620;2022-11-15T01:24:24;104.95;;;54.15;;
18114;SDS011;9184;54.390;18.620;2022-11-15T01:24:55;106.50;;;56.17;;
18114;SDS011;9184;54.390;18.620;2022-11-15T01:25:26;102.23;;;54.33;;
18114;SDS011;9184;54.390;18.620;2022-11-15T01:25:58;103.95;;;54.22;;
18114;SDS011;9184;54.390;18.620;2022-11-15T01:26:28;102.05;;;55.78;;
18114;SDS011;9184;54.390;18.620;2022-11-15T01:27:00;102.75;;;56.65;;
18114;SDS011;9184;54.390;18.620;2022-11-15T01:27:31;109.72;;;56.63;;
18114;SDS011;9184;54.390;18.620;2022-11-15T01:28:02;108.00;;;55.97;;
18114;SDS011;9184;54.390;18.620;2022-11-15T01:28:34;99.38;;;55.67;;
18114;SDS011;9184;54.390;18.620;2022-11-15T01:29:05;108.53;;;57.67;;
18114;SDS011;9184;54.390;18.620;2022-11-15T01:29:35;105.20;;;54.97;;
18114;SDS011;9184;54.390;18.620;2022-11-15T01:30:07;114.33;;;57.80;;
18114;SDS011;9184;54.390;18.620;2022-11-15T01:30:38;107.85;;;56.97;;
18114;SDS011;9184;54.390;18.620;2022-11-15T01:31:10;111.82;;;57.20;;
18114;SDS011;9184;54.390;18.620;2022-11-15T01:31:41;109.03;;;57.17;;
18114;SDS011;9184;54.390;18.620;2022-11-15T01:32:12;105.37;;;55.43;;
18114;SDS011;9184;54.390;18.620;2022-11-15T01:32:43;110.85;;;56.60;;
18114;SDS011;9184;54.390;18.620;2022-11-15T01:33:13;112.70;;;57.58;;
18114;SDS011;9184;54.390;18.620;2022-11-15T01:33:44;109.72;;;58.42;;
18114;SDS011;9184;54.390;18.620;2022-11-15T01:34:15;102.55;;;53.25;;
18114;SDS011;9184;54.390;18.620;2022-11-15T01:34:46;103.82;;;54.92;;
18114;SDS011;9184;54.390;18.620;2022-11-15T01:35:16;108.22;;;57.47;;
18114;SDS011;9184;54.390;18.620;2022-11-15T01:35:47;108.68;;;55.88;;
18114;SDS011;9184;54.390;18.620;2022-11-15T01:36:18;103.50;;;55.67;;
18114;SDS011;9184;54.390;18.620;2022-11-15T01:36:49;104.50;;;54.25;;
18114;SDS011;9184;54.390;18.620;2022-11-15T01:37:19;107.30;;;57.53;;
18114;SDS011;9184;54.390;18.620;2022-11-15T01:37:50;106.40;;;55.47;;
18114;SDS011;9184;54.390;18.620;2022-11-15T01:38:21;111.57;;;56.05;;
18114;SDS011;9184;54.390;18.620;2022-11-15T01:38:52;100.88;;;54.40;;
18114;SDS011;9184;54.390;18.620;2022-11-15T01:39:23;106.65;;;54.50;;
18114;SDS011;9184;54.390;18.620;2022-11-15T01:39:56;107.32;;;54.83;;
18114;SDS011;9184;54.390;18.620;2022-11-15T01:40:26;101.13;;;56.70;;
18114;SDS011;9184;54.390;18.620;2022-11-15T01:40:56;115.97;;;55.70;;
18114;SDS011;9184;54.390;18.620;2022-11-15T01:41:27;105.88;;;55.47;;
18114;SDS011;9184;54.390;18.620;2022-11-15T01:41:59;108.97;;;56.00;;
18114;SDS011;9184;54.390;18.620;2022-11-15T01:42:30;108.18;;;54.33;;
18114;SDS011;9184;54.390;18.620;2022-11-15T01:43:49;112.30;;;54.47;;
18114;SDS011;9184;54.390;18.620;2022-11-15T01:44:34;104.90;;;53.20;;
18114;SDS011;9184;54.390;18.620;2022-11-15T01:45:09;110.30;;;52.83;;
18114;SDS011;9184;54.390;18.620;2022-11-15T01:45:43;101.30;;;52.53;;
18114;SDS011;9184;54.390;18.620;2022-11-15T01:46:21;107.67;;;55.30;;
18114;SDS011;9184;54.390;18.620;2022-11-15T01:46:53;111.95;;;54.63;;
18114;SDS011;9184;54.390;18.620;2022-11-15T01:47:25;107.10;;;54.92;;
18114;SDS011;9184;54.390;18.620;2022-11-15T01:47:57;104.38;;;52.95;;
18114;SDS011;9184;54.390;18.620;2022-11-15T01:48:30;99.33;;;52.93;;
18114;SDS011;9184;54.390;18.620;2022-11-15T01:49:04;100.97;;;51.10;;
18114;SDS011;9184;54.390;18.620;2022-11-15T01:49:37;107.83;;;54.80;;
18114;SDS011;9184;54.390;18.620;2022-11-15T01:50:10;101.15;;;54.10;;
18114;SDS011;9184;54.390;18.620;2022-11-15T01:50:43;104.53;;;53.37;;
18114;SDS011;9184;54.390;18.620;2022-11-15T01:51:14;109.13;;;55.07;;
18114;SDS011;9184;54.390;18.620;2022-11-15T01:51:45;112.00;;;56.93;;
18114;SDS011;9184;54.390;18.620;2022-11-15T01:52:17;111.30;;;55.03;;
18114;SDS011;9184;54.390;18.620;2022-11-15T01:52:48;102.33;;;52.37;;
18114;SDS011;9184;54.390;18.620;2022-11-15T01:53:19;97.35;;;51.53;;
18114;SDS011;9184;54.390;18.620;2022-11-15T01:53:52;99.90;;;51.50;;
18114;SDS011;9184;54.390;18.620;2022-11-15T01:54:25;100.50;;;49.93;;
18114;SDS011;9184;54.390;18.620;2022-11-15T01:54:56;101.77;;;50.83;;
18114;SDS011;9184;54.390;18.620;2022-11-15T01:55:30;103.17;;;51.33;;
18114;SDS011;9184;54.390;18.620;2022-11-15T01:56:01;108.40;;;52.60;;
18114;SDS011;9184;54.390;18.620;2022-11-15T01:56:32;99.75;;;51.55;;
18114;SDS011;9184;54.390;18.620;2022-11-15T01:57:07;102.40;;;50.83;;
18114;SDS011;9184;54.390;18.620;2022-11-15T01:57:39;103.68;;;51.67;;
18114;SDS011;9184;54.390;18.620;2022-11-15T01:58:11;101.07;;;53.57;;
18114;SDS011;9184;54.390;18.620;2022-11-15T01:58:42;103.20;;;53.33;;
18114;SDS011;9184;54.390;18.620;2022-11-15T01:59:15;106.40;;;52.20;;
18114;SDS011;9184;54.390;18.620;2022-11-15T01:59:45;104.72;;;53.85;;
18114;SDS011;9184;54.390;18.620;2022-11-15T02:00:17;108.13;;;53.75;;
18114;SDS011;9184;54.390;18.620;2022-11-15T02:00:48;104.65;;;52.97;;
18114;SDS011;9184;54.390;18.620;2022-11-15T02:01:19;101.03;;;51.40;;
18114;SDS011;9184;54.390;18.620;2022-11-15T02:01:50;105.67;;;54.97;;
18114;SDS011;9184;54.390;18.620;2022-11-15T02:02:21;107.30;;;54.60;;
18114;SDS011;9184;54.390;18.620;2022-11-15T02:02:52;111.95;;;56.38;;
18114;SDS011;9184;54.390;18.620;2022-11-15T02:03:22;102.93;;;52.97;;
18114;SDS011;9184;54.390;18.620;2022-11-15T02:03:57;105.20;;;53.03;;
18114;SDS011;9184;54.390;18.620;2022-11-15T02:04:29;109.63;;;55.38;;
18114;SDS011;9184;54.390;18.620;2022-11-15T02:05:01;112.70;;;54.45;;
18114;SDS011;9184;54.390;18.620;2022-11-15T02:05:32;105.35;;;51.70;;
18114;SDS011;9184;54.390;18.620;2022-11-15T02:06:03;105.32;;;52.70;;
18114;SDS011;9184;54.390;18.620;2022-11-15T02:06:33;102.00;;;51.47;;
18114;SDS011;9184;54.390;18.620;2022-11-15T02:07:05;106.45;;;52.45;;
18114;SDS011;9184;54.390;18.620;2022-11-15T02:07:37;100.68;;;51.97;;
18114;SDS011;9184;54.390;18.620;2022-11-15T02:08:07;95.65;;;50.33;;
18114;SDS011;9184;54.390;18.620;2022-11-15T02:08:49;101.32;;;51.45;;
18114;SDS011;9184;54.390;18.620;2022-11-15T02:09:20;106.85;;;53.08;;
18114;SDS011;9184;54.390;18.620;2022-11-15T02:09:50;98.90;;;49.60;;
18114;SDS011;9184;54.390;18.620;2022-11-15T02:10:22;99.68;;;51.97;;
18114;SDS011;9184;54.390;18.620;2022-11-15T02:10:53;105.28;;;52.63;;
18114;SDS011;9184;54.390;18.620;2022-11-15T02:11:23;103.78;;;52.53;;
18114;SDS011;9184;54.390;18.620;2022-11-15T02:11:54;106.00;;;52.08;;
18114;SDS011;9184;54.390;18.620;2022-11-15T02:12:26;110.93;;;52.25;;
18114;SDS011;9184;54.390;18.620;2022-11-15T02:12:56;103.35;;;52.17;;
18114;SDS011;9184;54.390;18.620;2022-11-15T02:13:28;101.70;;;51.43;;
18114;SDS011;9184;54.390;18.620;2022-11-15T02:13:59;100.90;;;51.63;;
18114;SDS011;9184;54.390;18.620;2022-11-15T02:14:32;101.57;;;53.30;;
18114;SDS011;9184;54.390;18.620;2022-11-15T02:15:02;98.93;;;52.50;;
18114;SDS011;9184;54.390;18.620;2022-11-15T02:15:36;107.80;;;51.57;;
18114;SDS011;9184;54.390;18.620;2022-11-15T02:16:12;108.82;;;52.35;;
18114;SDS011;9184;54.390;18.620;2022-11-15T02:16:45;99.10;;;51.83;;
18114;SDS011;9184;54.390;18.620;2022-11-15T02:17:23;98.05;;;51.95;;
18114;SDS011;9184;54.390;18.620;2022-11-15T02:18:05;106.35;;;53.60;;
18114;SDS011;9184;54.390;18.620;2022-11-15T02:18:39;106.43;;;51.17;;
18114;SDS011;9184;54.390;18.620;2022-11-15T02:19:17;94.40;;;50.42;;
18114;SDS011;9184;54.390;18.620;2022-11-15T02:20:49;108.72;;;51.97;;
18114;SDS011;9184;54.390;18.620;2022-11-15T02:21:24;100.23;;;52.27;;
18114;SDS011;9184;54.390;18.620;2022-11-15T02:21:59;106.60;;;53.03;;
18114;SDS011;9184;54.390;18.620;2022-11-15T02:22:35;110.57;;;54.00;;
18114;SDS011;9184;54.390;18.620;2022-11-15T02:23:14;122.63;;;55.30;;
18114;SDS011;9184;54.390;18.620;2022-11-15T02:23:56;109.80;;;53.67;;
18114;SDS011;9184;54.390;18.620;2022-11-15T02:24:37;115.68;;;53.90;;
18114;SDS011;9184;54.390;18.620;2022-11-15T02:25:18;114.33;;;56.30;;
18114;SDS011;9184;54.390;18.620;2022-11-15T02:25:56;113.33;;;52.73;;
18114;SDS011;9184;54.390;18.620;2022-11-15T02:27:37;106.88;;;52.15;;
18114;SDS011;9184;54.390;18.620;2022-11-15T02:28:58;118.50;;;55.17;;
18114;SDS011;9184;54.390;18.620;2022-11-15T02:29:37;112.53;;;55.75;;
18114;SDS011;9184;54.390;18.620;2022-11-15T02:30:17;114.13;;;54.83;;
18114;SDS011;9184;54.390;18.620;2022-11-15T02:30:48;111.57;;;57.35;;
18114;SDS011;9184;54.390;18.620;2022-11-15T02:31:22;117.43;;;58.17;;
18114;SDS011;9184;54.390;18.620;2022-11-15T02:31:57;116.60;;;56.13;;
18114;SDS011;9184;54.390;18.620;2022-11-15T02:32:31;113.47;;;56.57;;
18114;SDS011;9184;54.390;18.620;2022-11-15T02:33:07;109.80;;;53.80;;
18114;SDS011;9184;54.390;18.620;2022-11-15T02:33:41;116.22;;;55.30;;
18114;SDS011;9184;54.390;18.620;2022-11-15T02:34:16;107.03;;;52.80;;
18114;SDS011;9184;54.390;18.620;2022-11-15T02:34:51;116.32;;;54.75;;
18114;SDS011;9184;54.390;18.620;2022-11-15T02:35:27;120.82;;;55.78;;
18114;SDS011;9184;54.390;18.620;2022-11-15T02:35:59;117.30;;;53.63;;
18114;SDS011;9184;54.390;18.620;2022-11-15T02:36:34;108.97;;;55.63;;
18114;SDS011;9184;54.390;18.620;2022-11-15T02:37:06;115.82;;;57.08;;
18114;SDS011;9184;54.390;18.620;2022-11-15T02:37:42;109.82;;;53.42;;
18114;SDS011;9184;54.390;18.620;2022-11-15T02:38:17;120.57;;;55.95;;
18114;SDS011;9184;54.390;18.620;2022-11-15T02:38:51;114.53;;;54.85;;
18114;SDS011;9184;54.390;18.620;2022-11-15T02:39:27;120.30;;;55.75;;
18114;SDS011;9184;54.390;18.620;2022-11-15T02:39:59;112.32;;;56.03;;
18114;SDS011;9184;54.390;18.620;2022-11-15T02:40:34;123.28;;;56.05;;
18114;SDS011;9184;54.390;18.620;2022-11-15T02:41:09;112.13;;;56.27;;
18114;SDS011;9184;54.390;18.620;2022-11-15T02:41:43;124.37;;;57.67;;
18114;SDS011;9184;54.390;18.620;2022-11-15T02:42:14;115.27;;;57.83;;
18114;SDS011;9184;54.390;18.620;2022-11-15T02:43:07;118.07;;;57.63;;
18114;SDS011;9184;54.390;18.620;2022-11-15T02:44:07;112.00;;;52.37;;
18114;SDS011;9184;54.390;18.620;2022-11-15T02:44:38;123.07;;;57.03;;
18114;SDS011;9184;54.390;18.620;2022-11-15T02:45:10;128.43;;;55.83;;
18114;SDS011;9184;54.390;18.620;2022-11-15T02:45:46;117.70;;;57.27;;
18114;SDS011;9184;54.390;18.620;2022-11-15T02:46:18;132.85;;;59.00;;
18114;SDS011;9184;54.390;18.620;2022-11-15T02:46:52;125.10;;;55.90;;
18114;SDS011;9184;54.390;18.620;2022-11-15T02:47:43;128.20;;;58.70;;
18114;SDS011;9184;54.390;18.620;2022-11-15T02:48:15;124.83;;;58.60;;
18114;SDS011;9184;54.390;18.620;2022-11-15T02:48:45;130.20;;;62.83;;
18114;SDS011;9184;54.390;18.620;2022-11-15T02:49:16;116.87;;;59.17;;
18114;SDS011;9184;54.390;18.620;2022-11-15T02:49:48;127.53;;;59.80;;
18114;SDS011;9184;54.390;18.620;2022-11-15T02:50:20;128.50;;;59.50;;
18114;SDS011;9184;54.390;18.620;2022-11-15T02:50:52;130.20;;;61.87;;
18114;SDS011;9184;54.390;18.620;2022-11-15T02:51:23;120.07;;;59.17;;
18114;SDS011;9184;54.390;18.620;2022-11-15T02:51:54;129.53;;;59.47;;
18114;SDS011;9184;54.390;18.620;2022-11-15T02:52:25;127.55;;;59.00;;
18114;SDS011;9184;54.390;18.620;2022-11-15T02:52:56;123.57;;;59.70;;
18114;SDS011;9184;54.390;18.620;2022-11-15T02:53:27;121.78;;;55.95;;
18114;SDS011;9184;54.390;18.620;2022-11-15T02:53:58;122.05;;;57.42;;
18114;SDS011;9184;54.390;18.620;2022-11-15T02:54:29;123.70;;;58.43;;
18114;SDS011;9184;54.390;18.620;2022-11-15T02:55:01;115.93;;;57.27;;
18114;SDS011;9184;54.390;18.620;2022-11-15T02:55:32;118.00;;;55.37;;
18114;SDS011;9184;54.390;18.620;2022-11-15T02:56:03;119.93;;;58.25;;
18114;SDS011;9184;54.390;18.620;2022-11-15T02:56:35;124.63;;;58.08;;
18114;SDS011;9184;54.390;18.620;2022-11-15T02:57:07;115.40;;;56.23;;
18114;SDS011;9184;54.390;18.620;2022-11-15T02:57:43;118.77;;;57.27;;
18114;SDS011;9184;54.390;18.620;2022-11-15T02:58:21;116.30;;;56.92;;
18114;SDS011;9184;54.390;18.620;2022-11-15T02:59:12;121.10;;;58.70;;
18114;SDS011;9184;54.390;18.620;2022-11-15T02:59:48;119.55;;;58.15;;
18114;SDS011;9184;54.390;18.620;2022-11-15T03:00:23;122.82;;;57.42;;
18114;SDS011;9184;54.390;18.620;2022-11-15T03:00:56;114.73;;;57.13;;
18114;SDS011;9184;54.390;18.620;2022-11-15T03:01:33;113.90;;;57.33;;
18114;SDS011;9184;54.390;18.620;2022-11-15T03:02:11;116.90;;;56.38;;
18114;SDS011;9184;54.390;18.620;2022-11-15T03:02:52;113.80;;;54.78;;
18114;SDS011;9184;54.390;18.620;2022-11-15T03:03:40;116.30;;;55.70;;
18114;SDS011;9184;54.390;18.620;2022-11-15T03:04:17;119.22;;;55.70;;
18114;SDS011;9184;54.390;18.620;2022-11-15T03:04:50;113.20;;;53.92;;
18114;SDS011;9184;54.390;18.620;2022-11-15T03:05:24;114.90;;;55.28;;
18114;SDS011;9184;54.390;18.620;2022-11-15T03:05:56;115.90;;;57.30;;
18114;SDS011;9184;54.390;18.620;2022-11-15T03:06:33;109.43;;;54.78;;
18114;SDS011;9184;54.390;18.620;2022-11-15T03:07:06;103.63;;;53.43;;
18114;SDS011;9184;54.390;18.620;2022-11-15T03:07:42;109.20;;;54.05;;
18114;SDS011;9184;54.390;18.620;2022-11-15T03:08:15;112.53;;;55.78;;
18114;SDS011;9184;54.390;18.620;2022-11-15T03:08:49;114.30;;;55.65;;
18114;SDS011;9184;54.390;18.620;2022-11-15T03:09:25;114.70;;;56.78;;
18114;SDS011;9184;54.390;18.620;2022-11-15T03:10:01;108.35;;;53.65;;
18114;SDS011;9184;54.390;18.620;2022-11-15T03:10:36;116.20;;;55.47;;
18114;SDS011;9184;54.390;18.620;2022-11-15T03:11:09;112.25;;;54.60;;